Battle Point — NMBY — position and weather

sailwx.info

Track history (hours):
 
Tides and Currents Weather Stations Pressure Air Temp Water Temp Dewpoint Dewpoint Depression Visibility Wind Speed Wind Dir Waves Ship Positions

Battle Point

Last reported at 2017-May-16 21:40 UTC. Time now 2017-May-24 13:44 UTC.
Position N 47°44' W 122°44'.

Length 57 m; draft 3.2 m.

MMSI: 369970254.

Date/timePositionNaut miles runAvg speedWind from/ knotsBaromVisibWave heightAir tempDewpointWater temp
2017-May-16 21:40N 47°44' W 122°44'0 1.9
2017-May-16 21:30N 47°44' W 122°45'4 7.7
2017-May-16 21:00N 47°41' W 122°47'3 6.2
2017-May-16 20:30N 47°43' W 122°51'1 1.1
2017-May-16 20:00N 47°44' W 122°51'0 0.0
2017-May-16 19:30N 47°44' W 122°51'0 0.0
2017-May-16 19:00N 47°44' W 122°51'0 0.0
2017-May-16 18:30N 47°44' W 122°51'0 0.0
2017-May-16 18:00N 47°44' W 122°51'0 0.0
2017-May-16 17:30N 47°44' W 122°51'0 0.0
2017-May-16 17:00N 47°44' W 122°51'0 0.0
2017-May-16 16:30N 47°44' W 122°51'0 0.0
2017-May-16 16:00N 47°44' W 122°51'0 0.0
2017-May-16 15:30N 47°44' W 122°51'0 0.0
2017-May-16 15:00N 47°44' W 122°51'0 0.0
2017-May-16 14:30N 47°44' W 122°51'3 3.1
2017-May-16 13:30N 47°41' W 122°49'4 8.1
2017-May-16 13:01N 47°44' W 122°45'0 1.0
2017-May-16 12:30N 47°44' W 122°44'0 0.0
2017-May-16 12:00N 47°44' W 122°44'  
2017-May-13 01:59N 47°44' W 122°44'3 7.0
2017-May-13 01:30N 47°47' W 122°43'510.1
2017-May-13 00:59N 47°51' W 122°38'5 8.5
2017-May-13 00:22N 47°56' W 122°38'411.4
2017-May-12 23:59N 48°01' W 122°39'711.9
2017-May-12 23:21N 48°08' W 122°42'513.8
2017-May-12 23:00N 48°11' W 122°48'1110.9
2017-May-12 22:01N 48°22' W 122°46'011.5
2017-May-12 22:00N 48°22' W 122°46'510.5
2017-May-12 21:30N 48°27' W 122°45'510.4
2017-May-12 21:00N 48°32' W 122°45'510.9
2017-May-12 20:30N 48°38' W 122°44'610.3
2017-May-12 19:55N 48°44' W 122°46'810.9
2017-May-12 19:13N 48°48' W 122°55'311.6
2017-May-12 19:00N 48°49' W 122°58'611.2
2017-May-12 18:28N 48°53' W 123°06'510.6
2017-May-12 18:00N 48°56' W 123°12'510.7
2017-May-12 17:30N 48°59' W 123°18'710.4
2017-May-12 16:52N 49°03' W 123°26'410.1
2017-May-12 16:30N 49°06' W 123°30'510.1
2017-May-12 15:59N 49°09' W 123°37'  
Track history (hours):
 
Tides and Currents Weather Stations Pressure Air Temp Water Temp Dewpoint Dewpoint Depression Visibility Wind Speed Wind Dir Waves Ship Positions

Battle Point

Last reported at 2017-May-16 21:40 UTC. Time now 2017-May-24 13:44 UTC.
Position N 47°44' W 122°44'.

Length 57 m; draft 3.2 m.

MMSI: 369970254.

Date/timePositionNaut miles runAvg speedWind from/ knotsBaromVisibWave heightAir tempDewpointWater temp
2017-May-16 21:40N 47°44' W 122°44'0 1.9
2017-May-16 21:30N 47°44' W 122°45'4 7.7
2017-May-16 21:00N 47°41' W 122°47'3 6.2
2017-May-16 20:30N 47°43' W 122°51'1 1.1
2017-May-16 20:00N 47°44' W 122°51'0 0.0
2017-May-16 19:30N 47°44' W 122°51'0 0.0
2017-May-16 19:00N 47°44' W 122°51'0 0.0
2017-May-16 18:30N 47°44' W 122°51'0 0.0
2017-May-16 18:00N 47°44' W 122°51'0 0.0
2017-May-16 17:30N 47°44' W 122°51'0 0.0
2017-May-16 17:00N 47°44' W 122°51'0 0.0
2017-May-16 16:30N 47°44' W 122°51'0 0.0
2017-May-16 16:00N 47°44' W 122°51'0 0.0
2017-May-16 15:30N 47°44' W 122°51'0 0.0
2017-May-16 15:00N 47°44' W 122°51'0 0.0
2017-May-16 14:30N 47°44' W 122°51'3 3.1
2017-May-16 13:30N 47°41' W 122°49'4 8.1
2017-May-16 13:01N 47°44' W 122°45'0 1.0
2017-May-16 12:30N 47°44' W 122°44'0 0.0
2017-May-16 12:00N 47°44' W 122°44'  
2017-May-13 01:59N 47°44' W 122°44'3 7.0
2017-May-13 01:30N 47°47' W 122°43'510.1
2017-May-13 00:59N 47°51' W 122°38'5 8.5
2017-May-13 00:22N 47°56' W 122°38'411.4
2017-May-12 23:59N 48°01' W 122°39'711.9
2017-May-12 23:21N 48°08' W 122°42'513.8
2017-May-12 23:00N 48°11' W 122°48'1110.9
2017-May-12 22:01N 48°22' W 122°46'011.5
2017-May-12 22:00N 48°22' W 122°46'510.5
2017-May-12 21:30N 48°27' W 122°45'510.4
2017-May-12 21:00N 48°32' W 122°45'510.9
2017-May-12 20:30N 48°38' W 122°44'610.3
2017-May-12 19:55N 48°44' W 122°46'810.9
2017-May-12 19:13N 48°48' W 122°55'311.6
2017-May-12 19:00N 48°49' W 122°58'611.2
2017-May-12 18:28N 48°53' W 123°06'510.6
2017-May-12 18:00N 48°56' W 123°12'510.7
2017-May-12 17:30N 48°59' W 123°18'710.4
2017-May-12 16:52N 49°03' W 123°26'410.1
2017-May-12 16:30N 49°06' W 123°30'510.1
2017-May-12 15:59N 49°09' W 123°37'  

Dump ship's entire track history